sensor_id;sensor_type;location;lat;lon;timestamp;P1;P2;P0
70181;PMS5003;60060;42.060;-87.932;2022-07-01T00:01:57;0;0;
70181;PMS5003;60060;42.060;-87.932;2022-07-01T00:04:23;1;1;
70181;PMS5003;60060;42.060;-87.932;2022-07-01T00:06:48;1;1;
70181;PMS5003;60060;42.060;-87.932;2022-07-01T00:09:13;1;1;
70181;PMS5003;60060;42.060;-87.932;2022-07-01T00:11:39;0;0;
70181;PMS5003;60060;42.060;-87.932;2022-07-01T00:14:04;1;1;
70181;PMS5003;60060;42.060;-87.932;2022-07-01T00:16:30;2;2;
70181;PMS5003;60060;42.060;-87.932;2022-07-01T00:18:55;1;1;
70181;PMS5003;60060;42.060;-87.932;2022-07-01T00:21:20;0;0;
70181;PMS5003;60060;42.060;-87.932;2022-07-01T00:23:46;0;0;
70181;PMS5003;60060;42.060;-87.932;2022-07-01T00:26:12;1;1;
70181;PMS5003;60060;42.060;-87.932;2022-07-01T00:28:37;0;0;
70181;PMS5003;60060;42.060;-87.932;2022-07-01T00:31:03;0;0;
70181;PMS5003;60060;42.060;-87.932;2022-07-01T00:33:28;0;0;
70181;PMS5003;60060;42.060;-87.932;2022-07-01T00:35:53;0;0;
70181;PMS5003;60060;42.060;-87.932;2022-07-01T00:38:19;0;0;
70181;PMS5003;60060;42.060;-87.932;2022-07-01T00:40:44;0;0;
70181;PMS5003;60060;42.060;-87.932;2022-07-01T00:43:10;0;0;
70181;PMS5003;60060;42.060;-87.932;2022-07-01T00:45:35;0;0;
70181;PMS5003;60060;42.060;-87.932;2022-07-01T00:48:01;0;0;
70181;PMS5003;60060;42.060;-87.932;2022-07-01T00:50:26;0;0;
70181;PMS5003;60060;42.060;-87.932;2022-07-01T00:52:52;0;0;
70181;PMS5003;60060;42.060;-87.932;2022-07-01T00:55:17;0;0;
70181;PMS5003;60060;42.060;-87.932;2022-07-01T00:57:43;0;0;
70181;PMS5003;60060;42.060;-87.932;2022-07-01T01:00:09;0;0;
70181;PMS5003;60060;42.060;-87.932;2022-07-01T01:02:34;0;0;
70181;PMS5003;60060;42.060;-87.932;2022-07-01T01:04:59;0;0;
70181;PMS5003;60060;42.060;-87.932;2022-07-01T01:07:24;0;0;
70181;PMS5003;60060;42.060;-87.932;2022-07-01T01:09:50;0;0;
70181;PMS5003;60060;42.060;-87.932;2022-07-01T01:12:15;0;0;
70181;PMS5003;60060;42.060;-87.932;2022-07-01T01:14:44;0;0;
70181;PMS5003;60060;42.060;-87.932;2022-07-01T01:17:06;0;0;
70181;PMS5003;60060;42.060;-87.932;2022-07-01T01:19:32;0;0;
70181;PMS5003;60060;42.060;-87.932;2022-07-01T01:21:57;0;0;
70181;PMS5003;60060;42.060;-87.932;2022-07-01T01:24:23;0;0;
70181;PMS5003;60060;42.060;-87.932;2022-07-01T01:26:48;0;0;
70181;PMS5003;60060;42.060;-87.932;2022-07-01T01:29:14;0;0;
70181;PMS5003;60060;42.060;-87.932;2022-07-01T01:31:39;0;0;
70181;PMS5003;60060;42.060;-87.932;2022-07-01T01:34:05;0;0;
70181;PMS5003;60060;42.060;-87.932;2022-07-01T01:36:30;0;0;
70181;PMS5003;60060;42.060;-87.932;2022-07-01T01:38:56;0;0;
70181;PMS5003;60060;42.060;-87.932;2022-07-01T01:41:21;0;0;
70181;PMS5003;60060;42.060;-87.932;2022-07-01T01:43:47;0;0;
70181;PMS5003;60060;42.060;-87.932;2022-07-01T01:46:12;0;0;
70181;PMS5003;60060;42.060;-87.932;2022-07-01T01:48:37;0;0;
70181;PMS5003;60060;42.060;-87.932;2022-07-01T01:51:03;0;0;
70181;PMS5003;60060;42.060;-87.932;2022-07-01T01:53:28;0;0;
70181;PMS5003;60060;42.060;-87.932;2022-07-01T01:55:54;0;0;
70181;PMS5003;60060;42.060;-87.932;2022-07-01T01:58:19;0;0;
70181;PMS5003;60060;42.060;-87.932;2022-07-01T02:00:45;0;0;
70181;PMS5003;60060;42.060;-87.932;2022-07-01T02:03:11;0;0;
70181;PMS5003;60060;42.060;-87.932;2022-07-01T02:05:36;0;0;
70181;PMS5003;60060;42.060;-87.932;2022-07-01T02:08:01;0;0;
70181;PMS5003;60060;42.060;-87.932;2022-07-01T02:10:26;0;0;
70181;PMS5003;60060;42.060;-87.932;2022-07-01T02:12:52;0;0;
70181;PMS5003;60060;42.060;-87.932;2022-07-01T02:15:17;0;0;
70181;PMS5003;60060;42.060;-87.932;2022-07-01T02:17:43;0;0;
70181;PMS5003;60060;42.060;-87.932;2022-07-01T02:20:09;0;0;
70181;PMS5003;60060;42.060;-87.932;2022-07-01T02:22:34;0;0;
70181;PMS5003;60060;42.060;-87.932;2022-07-01T02:24:59;0;0;
70181;PMS5003;60060;42.060;-87.932;2022-07-01T02:27:25;0;0;
70181;PMS5003;60060;42.060;-87.932;2022-07-01T02:29:50;0;0;
70181;PMS5003;60060;42.060;-87.932;2022-07-01T02:32:16;0;0;
70181;PMS5003;60060;42.060;-87.932;2022-07-01T02:34:41;0;0;
70181;PMS5003;60060;42.060;-87.932;2022-07-01T02:37:06;0;0;
70181;PMS5003;60060;42.060;-87.932;2022-07-01T02:39:32;0;0;
70181;PMS5003;60060;42.060;-87.932;2022-07-01T02:41:57;0;0;
70181;PMS5003;60060;42.060;-87.932;2022-07-01T02:44:23;0;0;
70181;PMS5003;60060;42.060;-87.932;2022-07-01T02:46:48;0;0;
70181;PMS5003;60060;42.060;-87.932;2022-07-01T02:49:14;0;0;
70181;PMS5003;60060;42.060;-87.932;2022-07-01T02:51:39;0;0;
70181;PMS5003;60060;42.060;-87.932;2022-07-01T02:54:05;0;0;
70181;PMS5003;60060;42.060;-87.932;2022-07-01T02:56:30;0;0;
70181;PMS5003;60060;42.060;-87.932;2022-07-01T02:58:56;0;0;
70181;PMS5003;60060;42.060;-87.932;2022-07-01T03:01:21;0;0;
70181;PMS5003;60060;42.060;-87.932;2022-07-01T03:03:47;0;0;
70181;PMS5003;60060;42.060;-87.932;2022-07-01T03:06:12;0;0;
70181;PMS5003;60060;42.060;-87.932;2022-07-01T03:08:37;0;0;
70181;PMS5003;60060;42.060;-87.932;2022-07-01T03:11:03;0;0;
70181;PMS5003;60060;42.060;-87.932;2022-07-01T03:13:28;0;0;
70181;PMS5003;60060;42.060;-87.932;2022-07-01T03:15:54;0;0;
70181;PMS5003;60060;42.060;-87.932;2022-07-01T03:18:19;0;0;
70181;PMS5003;60060;42.060;-87.932;2022-07-01T03:20:45;1;1;
70181;PMS5003;60060;42.060;-87.932;2022-07-01T03:23:10;0;0;
70181;PMS5003;60060;42.060;-87.932;2022-07-01T03:25:36;0;0;
70181;PMS5003;60060;42.060;-87.932;2022-07-01T03:28:01;0;0;
70181;PMS5003;60060;42.060;-87.932;2022-07-01T03:30:27;8;8;
70181;PMS5003;60060;42.060;-87.932;2022-07-01T03:32:51;40;36;
70181;PMS5003;60060;42.060;-87.932;2022-07-01T03:35:18;74;67;
70181;PMS5003;60060;42.060;-87.932;2022-07-01T03:37:43;52;49;
70181;PMS5003;60060;42.060;-87.932;2022-07-01T03:40:09;68;62;
70181;PMS5003;60060;42.060;-87.932;2022-07-01T03:42:34;55;47;
70181;PMS5003;60060;42.060;-87.932;2022-07-01T03:45:00;67;67;
70181;PMS5003;60060;42.060;-87.932;2022-07-01T03:47:26;41;34;
70181;PMS5003;60060;42.060;-87.932;2022-07-01T03:49:51;28;26;
70181;PMS5003;60060;42.060;-87.932;2022-07-01T03:52:16;19;19;
70181;PMS5003;60060;42.060;-87.932;2022-07-01T03:54:42;17;16;
70181;PMS5003;60060;42.060;-87.932;2022-07-01T03:57:08;13;12;
70181;PMS5003;60060;42.060;-87.932;2022-07-01T03:59:34;14;12;
70181;PMS5003;60060;42.060;-87.932;2022-07-01T04:01:59;10;10;
70181;PMS5003;60060;42.060;-87.932;2022-07-01T04:04:25;6;6;
70181;PMS5003;60060;42.060;-87.932;2022-07-01T04:06:51;7;7;
70181;PMS5003;60060;42.060;-87.932;2022-07-01T04:09:16;5;4;
70181;PMS5003;60060;42.060;-87.932;2022-07-01T04:11:41;3;3;
70181;PMS5003;60060;42.060;-87.932;2022-07-01T04:14:07;2;2;
70181;PMS5003;60060;42.060;-87.932;2022-07-01T04:16:32;3;3;
70181;PMS5003;60060;42.060;-87.932;2022-07-01T04:18:58;2;2;
70181;PMS5003;60060;42.060;-87.932;2022-07-01T04:21:23;2;2;
70181;PMS5003;60060;42.060;-87.932;2022-07-01T04:23:48;23;18;
70181;PMS5003;60060;42.060;-87.932;2022-07-01T04:26:13;7;7;
70181;PMS5003;60060;42.060;-87.932;2022-07-01T04:28:39;5;5;
70181;PMS5003;60060;42.060;-87.932;2022-07-01T04:31:04;2;2;
70181;PMS5003;60060;42.060;-87.932;2022-07-01T04:33:30;5;5;
70181;PMS5003;60060;42.060;-87.932;2022-07-01T04:35:55;3;3;
70181;PMS5003;60060;42.060;-87.932;2022-07-01T04:38:21;3;3;
70181;PMS5003;60060;42.060;-87.932;2022-07-01T04:40:51;3;3;
70181;PMS5003;60060;42.060;-87.932;2022-07-01T04:43:12;2;2;
70181;PMS5003;60060;42.060;-87.932;2022-07-01T04:45:37;2;2;
70181;PMS5003;60060;42.060;-87.932;2022-07-01T04:48:03;1;1;
70181;PMS5003;60060;42.060;-87.932;2022-07-01T04:50:28;2;2;
70181;PMS5003;60060;42.060;-87.932;2022-07-01T04:52:54;0;0;
70181;PMS5003;60060;42.060;-87.932;2022-07-01T04:55:19;2;2;
70181;PMS5003;60060;42.060;-87.932;2022-07-01T04:57:44;2;1;
70181;PMS5003;60060;42.060;-87.932;2022-07-01T05:00:10;2;2;
70181;PMS5003;60060;42.060;-87.932;2022-07-01T05:02:35;2;2;
70181;PMS5003;60060;42.060;-87.932;2022-07-01T05:05:01;1;1;
70181;PMS5003;60060;42.060;-87.932;2022-07-01T05:07:26;1;1;
70181;PMS5003;60060;42.060;-87.932;2022-07-01T05:09:52;0;0;
70181;PMS5003;60060;42.060;-87.932;2022-07-01T05:12:17;0;0;
70181;PMS5003;60060;42.060;-87.932;2022-07-01T05:14:43;0;0;
70181;PMS5003;60060;42.060;-87.932;2022-07-01T05:17:08;1;1;
70181;PMS5003;60060;42.060;-87.932;2022-07-01T05:19:34;1;1;
70181;PMS5003;60060;42.060;-87.932;2022-07-01T05:21:59;0;0;
70181;PMS5003;60060;42.060;-87.932;2022-07-01T05:24:26;1;1;
70181;PMS5003;60060;42.060;-87.932;2022-07-01T05:26:50;0;0;
70181;PMS5003;60060;42.060;-87.932;2022-07-01T05:29:15;0;0;
70181;PMS5003;60060;42.060;-87.932;2022-07-01T05:31:41;0;0;
70181;PMS5003;60060;42.060;-87.932;2022-07-01T05:34:06;0;0;
70181;PMS5003;60060;42.060;-87.932;2022-07-01T05:36:32;0;0;
70181;PMS5003;60060;42.060;-87.932;2022-07-01T05:38:57;0;0;
70181;PMS5003;60060;42.060;-87.932;2022-07-01T05:41:23;0;0;
70181;PMS5003;60060;42.060;-87.932;2022-07-01T05:43:49;0;0;
70181;PMS5003;60060;42.060;-87.932;2022-07-01T05:46:14;1;1;
70181;PMS5003;60060;42.060;-87.932;2022-07-01T05:48:39;0;0;
70181;PMS5003;60060;42.060;-87.932;2022-07-01T05:51:05;0;0;
70181;PMS5003;60060;42.060;-87.932;2022-07-01T05:53:30;0;0;
70181;PMS5003;60060;42.060;-87.932;2022-07-01T05:55:56;0;0;
70181;PMS5003;60060;42.060;-87.932;2022-07-01T05:58:21;0;0;
70181;PMS5003;60060;42.060;-87.932;2022-07-01T06:00:46;0;0;
70181;PMS5003;60060;42.060;-87.932;2022-07-01T06:03:13;0;0;
70181;PMS5003;60060;42.060;-87.932;2022-07-01T06:05:38;0;0;
70181;PMS5003;60060;42.060;-87.932;2022-07-01T06:08:03;0;0;
70181;PMS5003;60060;42.060;-87.932;2022-07-01T06:10:28;0;0;
70181;PMS5003;60060;42.060;-87.932;2022-07-01T06:12:54;0;0;
70181;PMS5003;60060;42.060;-87.932;2022-07-01T06:15:20;0;0;
70181;PMS5003;60060;42.060;-87.932;2022-07-01T06:17:45;0;0;
70181;PMS5003;60060;42.060;-87.932;2022-07-01T06:20:10;0;0;
70181;PMS5003;60060;42.060;-87.932;2022-07-01T06:22:36;0;0;
70181;PMS5003;60060;42.060;-87.932;2022-07-01T06:25:02;0;0;
70181;PMS5003;60060;42.060;-87.932;2022-07-01T06:27:27;0;0;
70181;PMS5003;60060;42.060;-87.932;2022-07-01T06:29:52;1;0;
70181;PMS5003;60060;42.060;-87.932;2022-07-01T06:32:18;0;0;
70181;PMS5003;60060;42.060;-87.932;2022-07-01T06:34:43;1;1;
70181;PMS5003;60060;42.060;-87.932;2022-07-01T06:37:08;1;1;
70181;PMS5003;60060;42.060;-87.932;2022-07-01T06:39:34;1;1;
70181;PMS5003;60060;42.060;-87.932;2022-07-01T06:42:00;0;0;
70181;PMS5003;60060;42.060;-87.932;2022-07-01T06:44:25;0;0;
70181;PMS5003;60060;42.060;-87.932;2022-07-01T06:46:50;0;0;
70181;PMS5003;60060;42.060;-87.932;2022-07-01T06:49:16;0;0;
70181;PMS5003;60060;42.060;-87.932;2022-07-01T06:51:41;0;0;
70181;PMS5003;60060;42.060;-87.932;2022-07-01T06:54:07;0;0;
70181;PMS5003;60060;42.060;-87.932;2022-07-01T06:56:32;0;0;
70181;PMS5003;60060;42.060;-87.932;2022-07-01T06:58:58;0;0;
70181;PMS5003;60060;42.060;-87.932;2022-07-01T07:01:23;0;0;
70181;PMS5003;60060;42.060;-87.932;2022-07-01T07:03:49;0;0;
70181;PMS5003;60060;42.060;-87.932;2022-07-01T07:06:14;0;0;
70181;PMS5003;60060;42.060;-87.932;2022-07-01T07:08:39;0;0;
70181;PMS5003;60060;42.060;-87.932;2022-07-01T07:11:05;0;0;
70181;PMS5003;60060;42.060;-87.932;2022-07-01T07:15:56;0;0;
70181;PMS5003;60060;42.060;-87.932;2022-07-01T07:18:22;0;0;
70181;PMS5003;60060;42.060;-87.932;2022-07-01T07:20:47;0;0;
70181;PMS5003;60060;42.060;-87.932;2022-07-01T07:23:12;0;0;
70181;PMS5003;60060;42.060;-87.932;2022-07-01T07:25:38;0;0;
70181;PMS5003;60060;42.060;-87.932;2022-07-01T07:28:04;0;0;
70181;PMS5003;60060;42.060;-87.932;2022-07-01T07:30:29;0;0;
70181;PMS5003;60060;42.060;-87.932;2022-07-01T07:32:54;0;0;
70181;PMS5003;60060;42.060;-87.932;2022-07-01T07:35:20;0;0;
70181;PMS5003;60060;42.060;-87.932;2022-07-01T07:37:45;0;0;
70181;PMS5003;60060;42.060;-87.932;2022-07-01T07:40:11;1;1;
70181;PMS5003;60060;42.060;-87.932;2022-07-01T07:42:36;0;0;
70181;PMS5003;60060;42.060;-87.932;2022-07-01T07:45:02;0;0;
70181;PMS5003;60060;42.060;-87.932;2022-07-01T07:47:27;0;0;
70181;PMS5003;60060;42.060;-87.932;2022-07-01T07:49:53;0;0;
70181;PMS5003;60060;42.060;-87.932;2022-07-01T07:52:18;0;0;
70181;PMS5003;60060;42.060;-87.932;2022-07-01T07:54:43;0;0;
70181;PMS5003;60060;42.060;-87.932;2022-07-01T07:57:09;0;0;
70181;PMS5003;60060;42.060;-87.932;2022-07-01T07:59:34;0;0;
70181;PMS5003;60060;42.060;-87.932;2022-07-01T08:02:00;0;0;
70181;PMS5003;60060;42.060;-87.932;2022-07-01T08:04:25;0;0;
70181;PMS5003;60060;42.060;-87.932;2022-07-01T08:06:51;0;0;
70181;PMS5003;60060;42.060;-87.932;2022-07-01T08:09:16;0;0;
70181;PMS5003;60060;42.060;-87.932;2022-07-01T08:11:42;0;0;
70181;PMS5003;60060;42.060;-87.932;2022-07-01T08:14:07;0;0;
70181;PMS5003;60060;42.060;-87.932;2022-07-01T08:16:33;0;0;
70181;PMS5003;60060;42.060;-87.932;2022-07-01T08:18:58;0;0;
70181;PMS5003;60060;42.060;-87.932;2022-07-01T08:21:24;1;1;
70181;PMS5003;60060;42.060;-87.932;2022-07-01T08:23:49;0;0;
70181;PMS5003;60060;42.060;-87.932;2022-07-01T08:26:14;0;0;
70181;PMS5003;60060;42.060;-87.932;2022-07-01T08:28:40;0;0;
70181;PMS5003;60060;42.060;-87.932;2022-07-01T08:31:05;0;0;
70181;PMS5003;60060;42.060;-87.932;2022-07-01T08:33:31;0;0;
70181;PMS5003;60060;42.060;-87.932;2022-07-01T08:35:57;0;0;
70181;PMS5003;60060;42.060;-87.932;2022-07-01T08:38:22;0;0;
70181;PMS5003;60060;42.060;-87.932;2022-07-01T08:40:47;0;0;
70181;PMS5003;60060;42.060;-87.932;2022-07-01T08:43:13;0;0;
70181;PMS5003;60060;42.060;-87.932;2022-07-01T08:45:38;0;0;
70181;PMS5003;60060;42.060;-87.932;2022-07-01T08:48:04;0;0;
70181;PMS5003;60060;42.060;-87.932;2022-07-01T08:50:29;0;0;
70181;PMS5003;60060;42.060;-87.932;2022-07-01T08:52:55;0;0;
70181;PMS5003;60060;42.060;-87.932;2022-07-01T08:55:20;0;0;
70181;PMS5003;60060;42.060;-87.932;2022-07-01T08:57:46;0;0;
70181;PMS5003;60060;42.060;-87.932;2022-07-01T09:00:11;0;0;
70181;PMS5003;60060;42.060;-87.932;2022-07-01T09:05:05;0;0;
70181;PMS5003;60060;42.060;-87.932;2022-07-01T09:07:31;0;0;
70181;PMS5003;60060;42.060;-87.932;2022-07-01T09:09:53;1;1;
70181;PMS5003;60060;42.060;-87.932;2022-07-01T09:12:18;0;0;
70181;PMS5003;60060;42.060;-87.932;2022-07-01T09:14:44;0;0;
70181;PMS5003;60060;42.060;-87.932;2022-07-01T09:17:09;0;0;
70181;PMS5003;60060;42.060;-87.932;2022-07-01T09:19:35;0;0;
70181;PMS5003;60060;42.060;-87.932;2022-07-01T09:22:00;0;0;
70181;PMS5003;60060;42.060;-87.932;2022-07-01T09:24:27;0;0;
70181;PMS5003;60060;42.060;-87.932;2022-07-01T09:26:52;0;0;
70181;PMS5003;60060;42.060;-87.932;2022-07-01T09:29:17;0;0;
70181;PMS5003;60060;42.060;-87.932;2022-07-01T09:34:08;0;0;
70181;PMS5003;60060;42.060;-87.932;2022-07-01T09:36:33;0;0;
70181;PMS5003;60060;42.060;-87.932;2022-07-01T09:39:02;0;0;
70181;PMS5003;60060;42.060;-87.932;2022-07-01T09:41:24;0;0;
70181;PMS5003;60060;42.060;-87.932;2022-07-01T09:43:50;0;0;
70181;PMS5003;60060;42.060;-87.932;2022-07-01T09:46:15;0;0;
70181;PMS5003;60060;42.060;-87.932;2022-07-01T09:48:42;0;0;
70181;PMS5003;60060;42.060;-87.932;2022-07-01T09:51:06;0;0;
70181;PMS5003;60060;42.060;-87.932;2022-07-01T09:53:32;0;0;
70181;PMS5003;60060;42.060;-87.932;2022-07-01T09:55:57;0;0;
70181;PMS5003;60060;42.060;-87.932;2022-07-01T09:58:24;0;0;
70181;PMS5003;60060;42.060;-87.932;2022-07-01T10:00:48;0;0;
70181;PMS5003;60060;42.060;-87.932;2022-07-01T10:03:13;0;0;
70181;PMS5003;60060;42.060;-87.932;2022-07-01T10:05:42;0;0;
70181;PMS5003;60060;42.060;-87.932;2022-07-01T10:08:07;1;1;
70181;PMS5003;60060;42.060;-87.932;2022-07-01T10:10:36;0;0;
70181;PMS5003;60060;42.060;-87.932;2022-07-01T10:12:55;0;0;
70181;PMS5003;60060;42.060;-87.932;2022-07-01T10:15:20;0;0;
70181;PMS5003;60060;42.060;-87.932;2022-07-01T10:17:47;0;0;
70181;PMS5003;60060;42.060;-87.932;2022-07-01T10:20:12;0;0;
70181;PMS5003;60060;42.060;-87.932;2022-07-01T10:22:37;0;0;
70181;PMS5003;60060;42.060;-87.932;2022-07-01T10:27:28;0;0;
70181;PMS5003;60060;42.060;-87.932;2022-07-01T10:32:26;0;0;
70181;PMS5003;60060;42.060;-87.932;2022-07-01T10:34:44;0;0;
70181;PMS5003;60060;42.060;-87.932;2022-07-01T10:37:10;0;0;
70181;PMS5003;60060;42.060;-87.932;2022-07-01T10:42:01;0;0;
70181;PMS5003;60060;42.060;-87.932;2022-07-01T10:44:27;0;0;
70181;PMS5003;60060;42.060;-87.932;2022-07-01T10:46:52;0;0;
70181;PMS5003;60060;42.060;-87.932;2022-07-01T10:49:18;0;0;
70181;PMS5003;60060;42.060;-87.932;2022-07-01T10:51:45;0;0;
70181;PMS5003;60060;42.060;-87.932;2022-07-01T10:54:08;0;0;
70181;PMS5003;60060;42.060;-87.932;2022-07-01T10:56:37;0;0;
70181;PMS5003;60060;42.060;-87.932;2022-07-01T10:59:00;0;0;
70181;PMS5003;60060;42.060;-87.932;2022-07-01T11:01:24;0;0;
70181;PMS5003;60060;42.060;-87.932;2022-07-01T11:03:50;0;0;
70181;PMS5003;60060;42.060;-87.932;2022-07-01T11:06:16;0;0;
70181;PMS5003;60060;42.060;-87.932;2022-07-01T11:11:07;0;0;
70181;PMS5003;60060;42.060;-87.932;2022-07-01T11:13:32;0;0;
70181;PMS5003;60060;42.060;-87.932;2022-07-01T11:15:57;0;0;
70181;PMS5003;60060;42.060;-87.932;2022-07-01T11:18:23;0;0;
70181;PMS5003;60060;42.060;-87.932;2022-07-01T11:20:48;0;0;
70181;PMS5003;60060;42.060;-87.932;2022-07-01T11:23:14;1;1;
70181;PMS5003;60060;42.060;-87.932;2022-07-01T11:25:39;0;0;
70181;PMS5003;60060;42.060;-87.932;2022-07-01T11:28:05;1;1;
70181;PMS5003;60060;42.060;-87.932;2022-07-01T11:30:30;0;0;
70181;PMS5003;60060;42.060;-87.932;2022-07-01T11:32:56;0;0;
70181;PMS5003;60060;42.060;-87.932;2022-07-01T11:35:22;0;0;
70181;PMS5003;60060;42.060;-87.932;2022-07-01T11:37:47;0;0;
70181;PMS5003;60060;42.060;-87.932;2022-07-01T11:40:13;0;0;
70181;PMS5003;60060;42.060;-87.932;2022-07-01T11:42:38;0;0;
70181;PMS5003;60060;42.060;-87.932;2022-07-01T11:45:03;0;0;
70181;PMS5003;60060;42.060;-87.932;2022-07-01T11:47:28;0;0;
70181;PMS5003;60060;42.060;-87.932;2022-07-01T11:49:54;0;0;
70181;PMS5003;60060;42.060;-87.932;2022-07-01T11:52:20;0;0;
70181;PMS5003;60060;42.060;-87.932;2022-07-01T11:54:45;0;0;
70181;PMS5003;60060;42.060;-87.932;2022-07-01T11:57:11;0;0;
70181;PMS5003;60060;42.060;-87.932;2022-07-01T11:59:36;0;0;
70181;PMS5003;60060;42.060;-87.932;2022-07-01T12:02:01;0;0;
70181;PMS5003;60060;42.060;-87.932;2022-07-01T12:04:27;0;0;
70181;PMS5003;60060;42.060;-87.932;2022-07-01T12:06:52;0;0;
70181;PMS5003;60060;42.060;-87.932;2022-07-01T12:09:18;0;0;
70181;PMS5003;60060;42.060;-87.932;2022-07-01T12:11:45;0;0;
70181;PMS5003;60060;42.060;-87.932;2022-07-01T12:14:09;0;0;
70181;PMS5003;60060;42.060;-87.932;2022-07-01T12:16:38;0;0;
70181;PMS5003;60060;42.060;-87.932;2022-07-01T12:19:00;0;0;
70181;PMS5003;60060;42.060;-87.932;2022-07-01T12:21:25;0;0;
70181;PMS5003;60060;42.060;-87.932;2022-07-01T12:26:16;0;0;
70181;PMS5003;60060;42.060;-87.932;2022-07-01T12:28:41;0;0;
70181;PMS5003;60060;42.060;-87.932;2022-07-01T12:31:08;0;0;
70181;PMS5003;60060;42.060;-87.932;2022-07-01T12:33:33;0;0;
70181;PMS5003;60060;42.060;-87.932;2022-07-01T12:35:58;0;0;
70181;PMS5003;60060;42.060;-87.932;2022-07-01T12:38:23;0;0;
70181;PMS5003;60060;42.060;-87.932;2022-07-01T12:40:49;0;0;
70181;PMS5003;60060;42.060;-87.932;2022-07-01T12:43:23;0;0;
70181;PMS5003;60060;42.060;-87.932;2022-07-01T12:45:40;0;0;
70181;PMS5003;60060;42.060;-87.932;2022-07-01T12:48:05;0;0;
70181;PMS5003;60060;42.060;-87.932;2022-07-01T12:50:31;0;0;
70181;PMS5003;60060;42.060;-87.932;2022-07-01T12:52:57;0;0;
70181;PMS5003;60060;42.060;-87.932;2022-07-01T12:55:22;1;1;
70181;PMS5003;60060;42.060;-87.932;2022-07-01T12:57:47;0;0;
70181;PMS5003;60060;42.060;-87.932;2022-07-01T13:00:13;0;0;
70181;PMS5003;60060;42.060;-87.932;2022-07-01T13:02:38;0;0;
70181;PMS5003;60060;42.060;-87.932;2022-07-01T13:05:04;0;0;
70181;PMS5003;60060;42.060;-87.932;2022-07-01T13:07:29;0;0;
70181;PMS5003;60060;42.060;-87.932;2022-07-01T13:09:54;0;0;
70181;PMS5003;60060;42.060;-87.932;2022-07-01T13:12:20;0;0;
70181;PMS5003;60060;42.060;-87.932;2022-07-01T13:14:45;0;0;
70181;PMS5003;60060;42.060;-87.932;2022-07-01T13:17:11;0;0;
70181;PMS5003;60060;42.060;-87.932;2022-07-01T13:19:36;0;0;
70181;PMS5003;60060;42.060;-87.932;2022-07-01T13:22:02;0;0;
70181;PMS5003;60060;42.060;-87.932;2022-07-01T13:24:27;0;0;
70181;PMS5003;60060;42.060;-87.932;2022-07-01T13:26:53;0;0;
70181;PMS5003;60060;42.060;-87.932;2022-07-01T13:29:18;0;0;
70181;PMS5003;60060;42.060;-87.932;2022-07-01T13:31:44;0;0;
70181;PMS5003;60060;42.060;-87.932;2022-07-01T13:34:09;1;1;
70181;PMS5003;60060;42.060;-87.932;2022-07-01T13:36:34;0;0;
70181;PMS5003;60060;42.060;-87.932;2022-07-01T13:39:00;0;0;
70181;PMS5003;60060;42.060;-87.932;2022-07-01T13:41:26;0;0;
70181;PMS5003;60060;42.060;-87.932;2022-07-01T13:43:51;2;2;
70181;PMS5003;60060;42.060;-87.932;2022-07-01T13:46:17;1;1;
70181;PMS5003;60060;42.060;-87.932;2022-07-01T13:48:42;2;2;
70181;PMS5003;60060;42.060;-87.932;2022-07-01T13:51:08;2;2;
70181;PMS5003;60060;42.060;-87.932;2022-07-01T13:53:33;1;1;
70181;PMS5003;60060;42.060;-87.932;2022-07-01T13:55:59;2;2;
70181;PMS5003;60060;42.060;-87.932;2022-07-01T13:58:24;2;1;
70181;PMS5003;60060;42.060;-87.932;2022-07-01T14:00:50;1;1;
70181;PMS5003;60060;42.060;-87.932;2022-07-01T14:03:15;2;2;
70181;PMS5003;60060;42.060;-87.932;2022-07-01T14:05:40;1;1;
70181;PMS5003;60060;42.060;-87.932;2022-07-01T14:08:06;0;0;
70181;PMS5003;60060;42.060;-87.932;2022-07-01T14:10:31;1;1;
70181;PMS5003;60060;42.060;-87.932;2022-07-01T14:12:57;1;1;
70181;PMS5003;60060;42.060;-87.932;2022-07-01T14:15:23;1;1;
70181;PMS5003;60060;42.060;-87.932;2022-07-01T14:17:48;1;1;
70181;PMS5003;60060;42.060;-87.932;2022-07-01T14:20:13;3;2;
70181;PMS5003;60060;42.060;-87.932;2022-07-01T14:22:39;0;0;
70181;PMS5003;60060;42.060;-87.932;2022-07-01T14:25:05;0;0;
70181;PMS5003;60060;42.060;-87.932;2022-07-01T14:27:30;1;1;
70181;PMS5003;60060;42.060;-87.932;2022-07-01T14:29:55;1;1;
70181;PMS5003;60060;42.060;-87.932;2022-07-01T14:32:21;1;1;
70181;PMS5003;60060;42.060;-87.932;2022-07-01T14:34:46;0;0;
70181;PMS5003;60060;42.060;-87.932;2022-07-01T14:37:12;2;2;
70181;PMS5003;60060;42.060;-87.932;2022-07-01T14:39:37;0;0;
70181;PMS5003;60060;42.060;-87.932;2022-07-01T14:42:03;0;0;
70181;PMS5003;60060;42.060;-87.932;2022-07-01T14:44:28;1;1;
70181;PMS5003;60060;42.060;-87.932;2022-07-01T14:46:54;1;1;
70181;PMS5003;60060;42.060;-87.932;2022-07-01T14:49:19;1;1;
70181;PMS5003;60060;42.060;-87.932;2022-07-01T14:51:45;1;1;
70181;PMS5003;60060;42.060;-87.932;2022-07-01T14:54:10;1;1;
70181;PMS5003;60060;42.060;-87.932;2022-07-01T14:56:35;1;1;
70181;PMS5003;60060;42.060;-87.932;2022-07-01T14:59:01;3;3;
70181;PMS5003;60060;42.060;-87.932;2022-07-01T15:01:26;3;3;
70181;PMS5003;60060;42.060;-87.932;2022-07-01T15:03:52;3;3;
70181;PMS5003;60060;42.060;-87.932;2022-07-01T15:06:17;4;4;
70181;PMS5003;60060;42.060;-87.932;2022-07-01T15:08:43;2;2;
70181;PMS5003;60060;42.060;-87.932;2022-07-01T15:11:09;3;3;
70181;PMS5003;60060;42.060;-87.932;2022-07-01T15:13:33;2;2;
70181;PMS5003;60060;42.060;-87.932;2022-07-01T15:15:59;2;1;
70181;PMS5003;60060;42.060;-87.932;2022-07-01T15:18:24;2;1;
70181;PMS5003;60060;42.060;-87.932;2022-07-01T15:20:50;1;1;
70181;PMS5003;60060;42.060;-87.932;2022-07-01T15:23:15;1;1;
70181;PMS5003;60060;42.060;-87.932;2022-07-01T15:25:42;1;1;
70181;PMS5003;60060;42.060;-87.932;2022-07-01T15:28:07;3;3;
70181;PMS5003;60060;42.060;-87.932;2022-07-01T15:30:32;1;1;
70181;PMS5003;60060;42.060;-87.932;2022-07-01T15:32:57;0;0;
70181;PMS5003;60060;42.060;-87.932;2022-07-01T15:35:23;1;1;
70181;PMS5003;60060;42.060;-87.932;2022-07-01T15:37:48;1;1;
70181;PMS5003;60060;42.060;-87.932;2022-07-01T15:40:13;1;1;
70181;PMS5003;60060;42.060;-87.932;2022-07-01T15:42:39;1;1;
70181;PMS5003;60060;42.060;-87.932;2022-07-01T15:45:05;1;1;
70181;PMS5003;60060;42.060;-87.932;2022-07-01T15:47:30;1;1;
70181;PMS5003;60060;42.060;-87.932;2022-07-01T15:49:56;2;2;
70181;PMS5003;60060;42.060;-87.932;2022-07-01T15:52:21;0;0;
70181;PMS5003;60060;42.060;-87.932;2022-07-01T15:54:46;1;1;
70181;PMS5003;60060;42.060;-87.932;2022-07-01T15:57:12;2;1;
70181;PMS5003;60060;42.060;-87.932;2022-07-01T15:59:37;2;2;
70181;PMS5003;60060;42.060;-87.932;2022-07-01T16:02:03;1;1;
70181;PMS5003;60060;42.060;-87.932;2022-07-01T16:04:31;1;1;
70181;PMS5003;60060;42.060;-87.932;2022-07-01T16:06:53;0;0;
70181;PMS5003;60060;42.060;-87.932;2022-07-01T16:09:20;1;1;
70181;PMS5003;60060;42.060;-87.932;2022-07-01T16:11:45;1;1;
70181;PMS5003;60060;42.060;-87.932;2022-07-01T16:14:10;1;1;
70181;PMS5003;60060;42.060;-87.932;2022-07-01T16:16:35;1;1;
70181;PMS5003;60060;42.060;-87.932;2022-07-01T16:19:01;1;1;
70181;PMS5003;60060;42.060;-87.932;2022-07-01T16:21:26;1;1;
70181;PMS5003;60060;42.060;-87.932;2022-07-01T16:23:52;2;1;